createdAt,value
2019-02-20T00:00:11.621Z,36.43
2019-02-20T00:02:40.001Z,35.03
2019-02-20T00:05:09.174Z,39.47
2019-02-20T00:07:37.561Z,40.60
2019-02-20T00:10:06.741Z,41.03
2019-02-20T00:12:41.545Z,37.20
2019-02-20T00:15:09.994Z,39.33
2019-02-20T00:17:38.450Z,28.60
2019-02-20T00:20:11.137Z,27.60
2019-02-20T00:22:40.455Z,25.60
2019-02-20T00:25:09.510Z,20.47
2019-02-20T00:27:37.909Z,28.20
2019-02-20T00:30:20.269Z,32.67
2019-02-20T00:32:51.839Z,25.67
2019-02-20T00:35:25.805Z,25.10
2019-02-20T00:37:56.882Z,22.37
2019-02-20T00:40:25.273Z,21.33
2019-02-20T00:42:53.769Z,21.03
2019-02-20T00:45:42.921Z,27.33
2019-02-20T00:48:17.372Z,25.37
2019-02-20T00:50:50.136Z,25.83
2019-02-20T00:53:22.717Z,21.77
2019-02-20T00:55:51.956Z,21.80
2019-02-20T00:58:20.347Z,25.07
2019-02-20T01:00:49.240Z,31.13
2019-02-20T01:03:20.529Z,29.73
2019-02-20T01:05:52.061Z,24.47
2019-02-20T01:08:22.133Z,24.00
2019-02-20T01:10:51.293Z,25.20
2019-02-20T01:13:21.473Z,27.73
2019-02-20T01:15:54.205Z,31.97
2019-02-20T01:18:22.601Z,23.53
2019-02-20T01:20:51.030Z,27.80
2019-02-20T01:23:31.107Z,29.47
2019-02-20T01:25:59.749Z,24.87
2019-02-20T01:28:28.151Z,29.57
2019-02-20T01:31:00.917Z,28.63
2019-02-20T01:33:33.878Z,26.30
2019-02-20T01:36:05.276Z,23.03
2019-02-20T01:38:33.738Z,26.20
2019-02-20T01:41:02.156Z,22.50
2019-02-20T01:43:30.706Z,30.23
2019-02-20T01:46:00.667Z,27.30
2019-02-20T01:48:29.061Z,33.43
2019-02-20T01:50:57.477Z,31.47
2019-02-20T01:53:27.740Z,37.30
2019-02-20T01:56:00.721Z,39.63
2019-02-20T01:58:34.895Z,41.27
2019-02-20T02:01:08.945Z,36.97
2019-02-20T02:03:43.176Z,37.37
2019-02-20T02:06:15.870Z,37.33
2019-02-20T02:08:48.569Z,35.67
2019-02-20T02:11:16.965Z,41.70
2019-02-20T02:13:45.493Z,38.30
2019-02-20T02:16:13.893Z,34.07
2019-02-20T02:18:42.289Z,32.20
2019-02-20T02:21:19.458Z,34.70
2019-02-20T02:24:01.839Z,34.13
2019-02-20T02:26:30.257Z,34.67
2019-02-20T02:29:07.134Z,36.87
2019-02-20T02:31:38.484Z,39.67
2019-02-20T02:34:14.365Z,31.97
2019-02-20T02:36:42.775Z,34.20
2019-02-20T02:39:11.157Z,36.73
2019-02-20T02:41:40.827Z,29.63
2019-02-20T02:44:11.958Z,31.37
2019-02-20T02:46:40.352Z,30.47
2019-02-20T02:49:12.050Z,26.03
2019-02-20T02:51:40.481Z,31.17
2019-02-20T02:54:12.216Z,38.63
2019-02-20T02:56:48.100Z,45.23
2019-02-20T02:59:16.741Z,32.60
2019-02-20T03:01:46.771Z,34.73
2019-02-20T03:04:15.236Z,27.80
2019-02-20T03:06:45.356Z,27.63
2019-02-20T03:09:17.154Z,27.60
2019-02-20T03:11:47.231Z,35.80
2019-02-20T03:14:18.364Z,31.47
2019-02-20T03:16:49.651Z,29.53
2019-02-20T03:19:18.062Z,33.40
2019-02-20T03:21:46.484Z,29.03
2019-02-20T03:24:17.672Z,26.60
2019-02-20T03:26:52.134Z,32.57
2019-02-20T03:29:29.509Z,36.50
2019-02-20T03:31:59.190Z,46.03
2019-02-20T03:34:29.258Z,32.50
2019-02-20T03:37:00.631Z,39.07
2019-02-20T03:39:29.095Z,54.90
2019-02-20T03:42:01.022Z,42.00
2019-02-20T03:44:31.056Z,37.37
2019-02-20T03:46:59.701Z,40.03
2019-02-20T03:49:30.649Z,36.20
2019-02-20T03:52:01.961Z,42.10
2019-02-20T03:54:30.605Z,42.30
2019-02-20T03:57:02.046Z,39.00
2019-02-20T03:59:30.428Z,47.27
2019-02-20T04:02:04.236Z,41.47
2019-02-20T04:04:32.639Z,43.47
2019-02-20T04:07:03.954Z,46.97
2019-02-20T04:09:35.402Z,52.63
2019-02-20T04:12:06.760Z,49.50
2019-02-20T04:14:37.980Z,54.97
2019-02-20T04:17:14.262Z,59.47
2019-02-20T04:19:44.552Z,50.97
2019-02-20T04:22:15.689Z,52.97
2019-02-20T04:24:52.814Z,51.30
2019-02-20T04:27:21.203Z,38.13
2019-02-20T04:29:50.117Z,32.53
2019-02-20T04:32:22.598Z,49.40
2019-02-20T04:34:51.258Z,35.47
2019-02-20T04:37:22.592Z,34.43
2019-02-20T04:39:56.444Z,36.93
2019-02-20T04:42:26.717Z,30.83
2019-02-20T04:44:55.114Z,33.03
2019-02-20T04:47:26.726Z,32.33
2019-02-20T04:50:00.054Z,26.80
2019-02-20T04:52:25.544Z,31.57
2019-02-20T04:54:54.172Z,31.53
2019-02-20T04:57:24.216Z,40.27
2019-02-20T04:59:56.412Z,34.03
2019-02-20T05:02:24.822Z,46.17
2019-02-20T05:05:03.614Z,44.03
2019-02-20T05:07:32.357Z,34.17
2019-02-20T05:10:03.351Z,49.70
2019-02-20T05:12:37.933Z,64.27
2019-02-20T05:15:07.065Z,92.17
2019-02-20T05:17:39.533Z,82.67
2019-02-20T05:20:08.966Z,131.87
2019-02-20T05:22:40.070Z,95.60
2019-02-20T05:25:13.000Z,68.97
2019-02-20T05:27:42.997Z,69.93
2019-02-20T05:30:17.709Z,61.73
2019-02-20T05:32:46.098Z,90.60
2019-02-20T05:35:17.222Z,54.93
2019-02-20T05:37:45.663Z,48.80
2019-02-20T05:40:14.049Z,39.53
2019-02-20T05:42:42.498Z,40.50
2019-02-20T05:45:11.450Z,33.57
2019-02-20T05:47:43.272Z,44.73
2019-02-20T05:50:12.217Z,44.53
2019-02-20T05:52:40.596Z,44.87
2019-02-20T05:55:10.695Z,32.30
2019-02-20T05:57:39.094Z,42.97
2019-02-20T06:00:10.814Z,38.00
2019-02-20T06:02:40.919Z,45.20
2019-02-20T06:05:09.316Z,51.37
2019-02-20T06:07:37.698Z,57.57
2019-02-20T06:10:09.148Z,45.63
2019-02-20T06:12:37.541Z,41.07
2019-02-20T06:15:10.301Z,49.53
2019-02-20T06:17:38.689Z,46.30
2019-02-20T06:20:11.199Z,47.17
2019-02-20T06:22:46.554Z,47.30
2019-02-20T06:25:16.867Z,58.73
2019-02-20T06:27:45.245Z,54.00
2019-02-20T06:30:13.777Z,60.77
2019-02-20T06:32:42.181Z,61.63
2019-02-20T06:35:13.677Z,46.97
2019-02-20T06:37:42.056Z,46.57
2019-02-20T06:40:10.521Z,80.87
2019-02-20T06:42:39.160Z,50.80
2019-02-20T06:45:09.956Z,51.90
2019-02-20T06:47:38.353Z,40.70
2019-02-20T06:50:09.170Z,36.40
2019-02-20T06:52:37.818Z,36.60
2019-02-20T06:55:09.871Z,44.63
2019-02-20T06:57:48.318Z,46.43
2019-02-20T07:00:16.729Z,43.40
2019-02-20T07:02:51.673Z,50.27
2019-02-20T07:05:33.409Z,50.00
2019-02-20T07:08:13.501Z,51.20
2019-02-20T07:11:07.893Z,72.23
2019-02-20T07:13:48.605Z,52.70
2019-02-20T07:16:33.451Z,147.00
2019-02-20T07:19:09.416Z,74.23
2019-02-20T07:22:06.678Z,88.77
2019-02-20T07:24:41.061Z,66.27
2019-02-20T07:27:52.344Z,73.53
2019-02-20T07:30:20.753Z,114.97
2019-02-20T07:32:52.034Z,68.43
2019-02-20T07:35:20.441Z,52.30
2019-02-20T07:37:48.825Z,137.73
2019-02-20T07:40:23.069Z,41.63
2019-02-20T07:42:53.101Z,190.53
2019-02-20T07:45:23.137Z,35.87
2019-02-20T07:47:55.944Z,33.47
2019-02-20T07:50:27.357Z,45.03
2019-02-20T07:52:58.455Z,42.43
2019-02-20T07:55:28.805Z,42.07
2019-02-20T07:58:00.149Z,42.67
2019-02-20T08:00:28.540Z,48.20
2019-02-20T08:02:59.761Z,49.93
2019-02-20T08:05:29.789Z,47.27
2019-02-20T08:08:03.944Z,48.33
2019-02-20T08:10:34.109Z,53.73
2019-02-20T08:13:02.751Z,59.77
2019-02-20T08:15:34.157Z,71.17
2019-02-20T08:18:05.286Z,99.10
2019-02-20T08:20:33.668Z,46.93
2019-02-20T08:23:03.708Z,63.40
2019-02-20T08:25:36.073Z,71.87
2019-02-20T08:28:04.921Z,43.83
2019-02-20T08:30:33.309Z,61.23
2019-02-20T08:33:01.696Z,34.80
2019-02-20T08:35:30.089Z,26.63
2019-02-20T08:37:58.482Z,26.27
2019-02-20T08:40:26.892Z,25.53
2019-02-20T08:42:58.259Z,27.83
2019-02-20T08:45:32.440Z,21.67
2019-02-20T08:48:03.716Z,26.97
2019-02-20T08:50:32.125Z,21.17
2019-02-20T08:53:00.517Z,53.83
2019-02-20T08:55:33.255Z,27.80
2019-02-20T08:58:04.377Z,26.23
2019-02-20T09:00:35.097Z,19.77
2019-02-20T09:03:06.603Z,20.47
2019-02-20T09:05:34.990Z,16.23
2019-02-20T09:08:03.907Z,17.63
2019-02-20T09:10:32.378Z,94.10
2019-02-20T09:13:05.289Z,27.50
2019-02-20T09:15:36.121Z,21.23
2019-02-20T09:18:10.721Z,20.20
2019-02-20T09:20:39.494Z,15.70
2019-02-20T09:23:08.137Z,16.93
2019-02-20T09:25:41.644Z,19.17
2019-02-20T09:28:12.873Z,25.03
2019-02-20T09:30:44.884Z,27.47
2019-02-20T09:33:13.269Z,20.07
2019-02-20T09:35:44.462Z,18.70
2019-02-20T09:38:12.851Z,16.10
2019-02-20T09:40:43.902Z,15.93
2019-02-20T09:43:13.821Z,18.20
2019-02-20T09:45:44.442Z,20.77
2019-02-20T09:48:13.954Z,16.00
2019-02-20T09:50:42.341Z,17.80
2019-02-20T09:53:13.736Z,17.17
2019-02-20T09:55:51.115Z,14.03
2019-02-20T09:58:20.686Z,14.67
2019-02-20T10:00:50.708Z,16.13
2019-02-20T10:03:21.843Z,13.83
2019-02-20T10:05:50.477Z,18.10
2019-02-20T10:08:21.600Z,17.47
2019-02-20T10:10:50.012Z,19.23
2019-02-20T10:13:20.051Z,16.43
2019-02-20T10:15:51.116Z,15.80
2019-02-20T10:18:19.520Z,16.37
2019-02-20T10:20:48.167Z,15.10
2019-02-20T10:23:18.189Z,14.67
2019-02-20T10:25:49.520Z,13.67
2019-02-20T10:28:20.937Z,16.67
2019-02-20T10:30:49.337Z,14.87
2019-02-20T10:33:33.802Z,14.97
2019-02-20T10:35:55.196Z,16.27
2019-02-20T10:38:26.755Z,18.33
2019-02-20T10:40:55.155Z,14.13
2019-02-20T10:43:23.541Z,15.10
2019-02-20T10:45:58.465Z,18.40
2019-02-20T10:48:29.340Z,18.07
2019-02-20T10:50:58.773Z,15.33
2019-02-20T10:53:33.256Z,15.93
2019-02-20T10:56:09.481Z,20.73
2019-02-20T10:58:39.426Z,15.80
2019-02-20T11:01:19.501Z,18.10
2019-02-20T11:03:46.470Z,16.77
2019-02-20T11:06:17.821Z,20.10
2019-02-20T11:08:52.156Z,18.90
2019-02-20T11:11:25.953Z,15.13
2019-02-20T11:13:54.345Z,16.32
2019-02-20T11:16:27.378Z,16.97
2019-02-20T11:18:57.414Z,18.93
2019-02-20T11:21:28.840Z,21.87
2019-02-20T11:23:57.238Z,26.25
2019-02-20T11:26:27.282Z,17.30
2019-02-20T11:28:58.548Z,20.62
2019-02-20T11:31:29.617Z,17.43
2019-02-20T11:33:59.648Z,19.00
2019-02-20T11:36:32.725Z,16.13
2019-02-20T11:39:06.530Z,18.83
2019-02-20T11:41:34.931Z,15.70
2019-02-20T11:44:03.565Z,15.33
2019-02-20T11:46:34.752Z,19.43
2019-02-20T11:49:03.163Z,16.60
2019-02-20T11:51:43.397Z,16.53
2019-02-20T11:54:19.981Z,15.67
2019-02-20T11:56:54.195Z,16.70
2019-02-20T11:59:25.508Z,16.47
2019-02-20T12:02:10.510Z,16.93
2019-02-20T12:04:39.162Z,17.73
2019-02-20T12:07:08.561Z,19.20
2019-02-20T12:09:39.889Z,16.03
2019-02-20T12:12:11.401Z,19.20
2019-02-20T12:14:44.117Z,17.40
2019-02-20T12:17:14.173Z,18.57
2019-02-20T12:19:51.153Z,18.83
2019-02-20T12:22:22.902Z,17.62
2019-02-20T12:24:54.884Z,18.40
2019-02-20T12:27:26.493Z,15.50
2019-02-20T12:29:57.566Z,15.35
2019-02-20T12:32:25.961Z,15.83
2019-02-20T12:35:07.461Z,15.88
2019-02-20T12:37:33.005Z,17.30
2019-02-20T12:40:01.407Z,17.12
2019-02-20T12:42:34.173Z,17.07
2019-02-20T12:45:02.734Z,16.25
2019-02-20T12:47:34.168Z,19.62
2019-02-20T12:50:05.997Z,17.07
2019-02-20T12:52:34.389Z,17.85
2019-02-20T12:55:05.893Z,18.17
2019-02-20T12:57:35.825Z,16.80
2019-02-20T13:00:07.522Z,14.75
2019-02-20T13:02:42.015Z,16.20
2019-02-20T13:05:10.417Z,18.73
2019-02-20T13:07:38.796Z,14.43
2019-02-20T13:10:09.473Z,14.05
2019-02-20T13:12:37.933Z,14.20
2019-02-20T13:15:09.575Z,16.15
2019-02-20T13:17:37.964Z,14.47
2019-02-20T13:20:08.460Z,10.73
2019-02-20T13:22:36.859Z,11.17
2019-02-20T13:25:08.222Z,8.00
2019-02-20T13:27:37.683Z,11.30
2019-02-20T13:30:15.947Z,11.47
2019-02-20T13:32:43.585Z,10.70
2019-02-20T13:35:15.150Z,12.70
2019-02-20T13:37:43.540Z,10.77
2019-02-20T13:40:17.113Z,16.30
2019-02-20T13:42:45.619Z,14.53
2019-02-20T13:45:14.006Z,16.10
2019-02-20T13:47:42.410Z,14.37
2019-02-20T13:50:12.622Z,11.47
2019-02-20T13:52:52.073Z,13.17
2019-02-20T13:55:19.346Z,16.70
2019-02-20T13:57:51.833Z,20.33
2019-02-20T14:00:21.883Z,16.00
2019-02-20T14:02:52.753Z,15.47
2019-02-20T14:05:22.068Z,14.30
2019-02-20T14:07:50.476Z,12.20
2019-02-20T14:10:19.611Z,15.63
2019-02-20T14:12:50.157Z,14.57
2019-02-20T14:15:20.223Z,16.10
2019-02-20T14:17:51.373Z,15.67
2019-02-20T14:20:32.097Z,15.10
2019-02-20T14:23:03.190Z,12.77
2019-02-20T14:25:31.832Z,12.30
2019-02-20T14:28:03.205Z,12.60
2019-02-20T14:30:35.769Z,11.37
2019-02-20T14:33:04.933Z,13.33
2019-02-20T14:35:34.120Z,11.53
2019-02-20T14:38:04.227Z,13.30
2019-02-20T14:40:33.038Z,13.00
2019-02-20T14:43:01.508Z,14.77
2019-02-20T14:45:35.852Z,13.63
2019-02-20T14:48:05.033Z,10.40
2019-02-20T14:50:33.426Z,12.03
2019-02-20T14:53:01.821Z,13.67
2019-02-20T14:55:30.545Z,17.07
2019-02-20T14:58:00.082Z,13.83
2019-02-20T15:00:28.754Z,12.50
2019-02-20T15:03:01.107Z,14.53
2019-02-20T15:05:30.528Z,12.17
2019-02-20T15:07:59.576Z,14.00
2019-02-20T15:10:27.965Z,13.73
2019-02-20T15:12:56.436Z,12.67
2019-02-20T15:15:25.144Z,11.83
2019-02-20T15:17:53.529Z,12.03
2019-02-20T15:20:21.917Z,17.33
2019-02-20T15:22:51.950Z,14.00
2019-02-20T15:25:23.078Z,14.53
2019-02-20T15:27:51.465Z,11.73
2019-02-20T15:30:21.506Z,10.67
2019-02-20T15:32:51.549Z,13.57
2019-02-20T15:35:21.565Z,15.13
2019-02-20T15:37:49.996Z,13.30
2019-02-20T15:40:24.324Z,12.87
2019-02-20T15:42:52.722Z,13.80
2019-02-20T15:45:22.655Z,13.83
2019-02-20T15:47:51.058Z,12.93
2019-02-20T15:50:25.341Z,20.27
2019-02-20T15:52:59.512Z,18.00
2019-02-20T15:55:28.021Z,15.77
2019-02-20T15:57:58.136Z,14.57
2019-02-20T16:00:32.313Z,14.53
2019-02-20T16:03:02.356Z,12.60
2019-02-20T16:05:36.384Z,12.47
2019-02-20T16:08:07.962Z,13.20
2019-02-20T16:10:36.350Z,13.83
2019-02-20T16:13:05.514Z,14.43
2019-02-20T16:15:34.187Z,15.53
2019-02-20T16:18:03.009Z,11.47
2019-02-20T16:20:33.559Z,13.03
2019-02-20T16:23:01.761Z,11.10
2019-02-20T16:25:38.717Z,13.37
2019-02-20T16:28:07.101Z,16.43
2019-02-20T16:30:36.364Z,13.17
2019-02-20T16:33:04.762Z,11.73
2019-02-20T16:35:40.745Z,15.97
2019-02-20T16:38:09.817Z,13.23
2019-02-20T16:40:39.845Z,13.03
2019-02-20T16:43:08.292Z,15.33
2019-02-20T16:45:37.402Z,15.83
2019-02-20T16:48:05.783Z,14.10
2019-02-20T16:50:34.176Z,16.00
2019-02-20T16:53:08.438Z,15.23
2019-02-20T16:55:37.123Z,15.27
2019-02-20T16:58:11.309Z,16.17
2019-02-20T17:00:42.584Z,12.37
2019-02-20T17:03:12.461Z,12.87
2019-02-20T17:05:41.119Z,11.50
2019-02-20T17:08:10.745Z,10.90
2019-02-20T17:10:41.769Z,11.80
2019-02-20T17:13:10.340Z,12.07
2019-02-20T17:15:38.757Z,14.07
2019-02-20T17:18:07.137Z,11.17
2019-02-20T17:20:35.522Z,13.00
2019-02-20T17:23:07.133Z,11.77
2019-02-20T17:25:35.509Z,10.87
2019-02-20T17:28:06.005Z,11.70
2019-02-20T17:30:39.166Z,11.33
2019-02-20T17:33:13.248Z,10.07
2019-02-20T17:35:42.400Z,12.93
2019-02-20T17:38:14.009Z,12.20
2019-02-20T17:40:44.167Z,11.63
2019-02-20T17:43:12.572Z,14.47
2019-02-20T17:45:40.950Z,12.30
2019-02-20T17:48:10.969Z,13.00
2019-02-20T17:50:39.367Z,15.70
2019-02-20T17:53:09.384Z,12.67
2019-02-20T17:55:40.349Z,14.30
2019-02-20T17:58:14.809Z,14.90
2019-02-20T18:00:39.754Z,14.83
2019-02-20T18:03:12.219Z,15.63
2019-02-20T18:05:40.628Z,13.77
2019-02-20T18:08:09.014Z,19.03
2019-02-20T18:10:40.390Z,18.50
2019-02-20T18:13:10.644Z,13.00
2019-02-20T18:15:40.329Z,14.20
2019-02-20T18:18:10.937Z,12.80
2019-02-20T18:20:39.335Z,14.13
2019-02-20T18:23:13.845Z,13.63
2019-02-20T18:25:42.239Z,15.77
2019-02-20T18:28:23.870Z,16.90
2019-02-20T18:30:45.077Z,17.83
2019-02-20T18:33:22.455Z,14.60
2019-02-20T18:35:58.174Z,16.27
2019-02-20T18:38:24.163Z,13.97
2019-02-20T18:40:52.565Z,13.03
2019-02-20T18:43:26.709Z,15.63
2019-02-20T18:45:55.372Z,13.70
2019-02-20T18:48:28.551Z,20.03
2019-02-20T18:50:59.674Z,17.27
2019-02-20T18:53:30.993Z,15.70
2019-02-20T18:56:00.518Z,15.37
2019-02-20T18:58:35.842Z,16.97
2019-02-20T19:01:04.373Z,15.07
2019-02-20T19:03:41.678Z,19.63
2019-02-20T19:06:14.625Z,20.57
2019-02-20T19:08:46.432Z,20.67
2019-02-20T19:11:29.470Z,21.87
2019-02-20T19:14:17.697Z,18.93
2019-02-20T19:16:51.698Z,20.27
2019-02-20T19:19:49.749Z,19.73
2019-02-20T19:22:36.353Z,20.10
2019-02-20T19:25:19.597Z,22.57
2019-02-20T19:28:00.049Z,19.43
2019-02-20T19:30:46.462Z,25.03
2019-02-20T19:33:43.429Z,19.90
2019-02-20T19:36:39.098Z,20.03
2019-02-20T19:39:21.949Z,18.93
2019-02-20T19:42:15.674Z,26.17
2019-02-20T19:45:17.951Z,21.17
2019-02-20T19:48:06.590Z,22.47
2019-02-20T19:50:49.255Z,21.23
2019-02-20T19:53:23.501Z,20.70
2019-02-20T19:56:00.774Z,24.87
2019-02-20T19:58:40.459Z,21.47
2019-02-20T20:01:32.048Z,22.13
2019-02-20T20:04:05.125Z,23.57
2019-02-20T20:06:55.662Z,21.50
2019-02-20T20:09:32.369Z,23.73
2019-02-20T20:12:26.833Z,20.70
2019-02-20T20:15:13.093Z,20.50
2019-02-20T20:17:59.879Z,24.93
2019-02-20T20:20:34.007Z,28.80
2019-02-20T20:23:35.456Z,27.93
2019-02-20T20:26:19.068Z,28.93
2019-02-20T20:29:12.985Z,25.27
2019-02-20T20:31:44.446Z,28.93
2019-02-20T20:34:34.737Z,34.17
2019-02-20T20:37:22.830Z,29.67
2019-02-20T20:39:56.935Z,27.27
2019-02-20T20:42:36.933Z,32.37
2019-02-20T20:45:20.547Z,27.00
2019-02-20T20:48:12.055Z,25.23
2019-02-20T20:51:02.517Z,21.00
2019-02-20T20:53:48.421Z,18.23
2019-02-20T20:56:57.800Z,19.37
2019-02-20T20:59:25.233Z,22.57
2019-02-20T21:02:08.449Z,19.73
2019-02-20T21:04:42.866Z,21.40
2019-02-20T21:07:26.394Z,26.33
2019-02-20T21:09:57.845Z,26.77
2019-02-20T21:12:50.521Z,25.97
2019-02-20T21:15:35.197Z,25.10
2019-02-20T21:18:21.531Z,21.83
2019-02-20T21:20:56.013Z,24.63
2019-02-20T21:23:58.120Z,24.17
2019-02-20T21:26:32.393Z,23.67
2019-02-20T21:29:09.375Z,28.37
2019-02-20T21:31:53.790Z,27.20
2019-02-20T21:34:45.450Z,30.27
2019-02-20T21:37:35.127Z,27.83
2019-02-20T21:40:39.625Z,27.67
2019-02-20T21:43:31.647Z,30.23
2019-02-20T21:46:12.189Z,26.53
2019-02-20T21:48:46.845Z,26.63
2019-02-20T21:51:23.597Z,27.70
2019-02-20T21:54:01.073Z,28.63
2019-02-20T21:56:47.450Z,23.50
2019-02-20T21:59:27.364Z,28.27
2019-02-20T22:02:08.084Z,29.87
2019-02-20T22:04:45.225Z,30.50
2019-02-20T22:07:34.589Z,25.10
2019-02-20T22:10:17.866Z,24.23
2019-02-20T22:12:51.171Z,26.57
2019-02-20T22:15:28.248Z,28.87
2019-02-20T22:17:59.751Z,28.87
2019-02-20T22:20:53.429Z,33.20
2019-02-20T22:23:41.469Z,30.07
2019-02-20T22:26:18.899Z,30.03
2019-02-20T22:29:07.033Z,27.00
2019-02-20T22:32:00.527Z,32.83
2019-02-20T22:34:53.738Z,30.80
2019-02-20T22:37:47.484Z,28.57
2019-02-20T22:40:24.850Z,33.13
2019-02-20T22:43:28.442Z,29.87
2019-02-20T22:46:05.897Z,29.33
2019-02-20T22:48:54.355Z,27.37
2019-02-20T22:51:37.664Z,36.00
2019-02-20T22:54:14.760Z,33.67
2019-02-20T22:56:58.500Z,33.77
2019-02-20T23:00:01.387Z,33.30
2019-02-20T23:02:44.201Z,33.33
2019-02-20T23:05:41.557Z,32.40
2019-02-20T23:08:29.446Z,35.53
2019-02-20T23:11:35.214Z,27.40
2019-02-20T23:24:46.621Z,25.47
2019-02-20T23:27:15.180Z,34.17
2019-02-20T23:29:44.490Z,27.13
2019-02-20T23:32:18.962Z,26.63
2019-02-20T23:34:47.888Z,28.27
2019-02-20T23:37:19.583Z,29.97
2019-02-20T23:39:57.076Z,31.90
2019-02-20T23:42:28.460Z,32.60
2019-02-20T23:44:57.039Z,30.53
2019-02-20T23:47:28.830Z,26.67
2019-02-20T23:50:00.239Z,33.30
2019-02-20T23:52:33.289Z,34.83
2019-02-20T23:55:22.863Z,41.10
2019-02-20T23:58:02.802Z,35.13
